sensor_id;sensor_type;location;lat;lon;timestamp;P1;durP1;ratioP1;P2;durP2;ratioP2
17038;SDS011;8636;55.750;13.202;2023-05-14T00:00:43;8.03;;;4.47;;
17038;SDS011;8636;55.750;13.202;2023-05-14T00:03:12;7.80;;;4.30;;
17038;SDS011;8636;55.750;13.202;2023-05-14T00:05:40;8.87;;;4.23;;
17038;SDS011;8636;55.750;13.202;2023-05-14T00:08:14;6.17;;;4.23;;
17038;SDS011;8636;55.750;13.202;2023-05-14T00:10:44;6.37;;;5.00;;
17038;SDS011;8636;55.750;13.202;2023-05-14T00:13:18;6.47;;;4.80;;
17038;SDS011;8636;55.750;13.202;2023-05-14T00:15:46;7.30;;;4.60;;
17038;SDS011;8636;55.750;13.202;2023-05-14T00:18:20;5.23;;;3.83;;
17038;SDS011;8636;55.750;13.202;2023-05-14T00:20:55;5.53;;;4.40;;
17038;SDS011;8636;55.750;13.202;2023-05-14T00:23:29;4.67;;;4.17;;
17038;SDS011;8636;55.750;13.202;2023-05-14T00:25:59;7.40;;;4.33;;
17038;SDS011;8636;55.750;13.202;2023-05-14T00:28:26;6.17;;;3.93;;
17038;SDS011;8636;55.750;13.202;2023-05-14T00:31:00;8.47;;;4.70;;
17038;SDS011;8636;55.750;13.202;2023-05-14T00:33:28;5.93;;;4.93;;
17038;SDS011;8636;55.750;13.202;2023-05-14T00:36:02;5.97;;;4.33;;
17038;SDS011;8636;55.750;13.202;2023-05-14T00:38:30;5.63;;;4.90;;
17038;SDS011;8636;55.750;13.202;2023-05-14T00:41:13;7.67;;;5.00;;
17038;SDS011;8636;55.750;13.202;2023-05-14T00:43:40;7.73;;;4.80;;
17038;SDS011;8636;55.750;13.202;2023-05-14T00:46:14;7.93;;;5.50;;
17038;SDS011;8636;55.750;13.202;2023-05-14T00:48:43;5.93;;;4.80;;
17038;SDS011;8636;55.750;13.202;2023-05-14T00:51:11;6.80;;;4.60;;
17038;SDS011;8636;55.750;13.202;2023-05-14T00:53:45;5.87;;;4.43;;
17038;SDS011;8636;55.750;13.202;2023-05-14T00:56:15;6.80;;;5.07;;
17038;SDS011;8636;55.750;13.202;2023-05-14T00:58:50;8.37;;;5.27;;
17038;SDS011;8636;55.750;13.202;2023-05-14T01:01:18;6.90;;;5.23;;
17038;SDS011;8636;55.750;13.202;2023-05-14T01:03:52;5.70;;;5.20;;
17038;SDS011;8636;55.750;13.202;2023-05-14T01:06:25;7.03;;;5.00;;
17038;SDS011;8636;55.750;13.202;2023-05-14T01:09:08;5.30;;;4.70;;
17038;SDS011;8636;55.750;13.202;2023-05-14T01:11:46;7.73;;;4.60;;
17038;SDS011;8636;55.750;13.202;2023-05-14T01:14:33;7.17;;;4.73;;
17038;SDS011;8636;55.750;13.202;2023-05-14T01:17:07;6.27;;;4.30;;
17038;SDS011;8636;55.750;13.202;2023-05-14T01:19:43;8.60;;;4.90;;
17038;SDS011;8636;55.750;13.202;2023-05-14T01:22:15;6.30;;;4.67;;
17038;SDS011;8636;55.750;13.202;2023-05-14T01:24:43;5.23;;;4.73;;
17038;SDS011;8636;55.750;13.202;2023-05-14T01:27:20;7.30;;;4.67;;
17038;SDS011;8636;55.750;13.202;2023-05-14T01:29:54;8.87;;;5.30;;
17038;SDS011;8636;55.750;13.202;2023-05-14T01:32:35;6.00;;;5.00;;
17038;SDS011;8636;55.750;13.202;2023-05-14T01:35:06;7.63;;;4.50;;
17038;SDS011;8636;55.750;13.202;2023-05-14T01:37:43;5.80;;;4.90;;
17038;SDS011;8636;55.750;13.202;2023-05-14T01:40:12;6.33;;;4.87;;
17038;SDS011;8636;55.750;13.202;2023-05-14T01:43:00;9.27;;;5.17;;
17038;SDS011;8636;55.750;13.202;2023-05-14T01:45:29;8.30;;;4.97;;
17038;SDS011;8636;55.750;13.202;2023-05-14T01:48:07;5.50;;;4.57;;
17038;SDS011;8636;55.750;13.202;2023-05-14T01:50:36;7.93;;;4.90;;
17038;SDS011;8636;55.750;13.202;2023-05-14T01:53:05;6.37;;;4.50;;
17038;SDS011;8636;55.750;13.202;2023-05-14T01:55:39;8.63;;;5.00;;
17038;SDS011;8636;55.750;13.202;2023-05-14T01:58:07;8.03;;;5.43;;
17038;SDS011;8636;55.750;13.202;2023-05-14T02:00:41;5.87;;;4.87;;
17038;SDS011;8636;55.750;13.202;2023-05-14T02:03:10;6.10;;;4.93;;
17038;SDS011;8636;55.750;13.202;2023-05-14T02:05:43;6.57;;;5.50;;
17038;SDS011;8636;55.750;13.202;2023-05-14T02:08:13;8.03;;;5.20;;
17038;SDS011;8636;55.750;13.202;2023-05-14T02:10:40;5.57;;;4.90;;
17038;SDS011;8636;55.750;13.202;2023-05-14T02:13:15;5.63;;;4.77;;
17038;SDS011;8636;55.750;13.202;2023-05-14T02:15:43;6.40;;;4.97;;
17038;SDS011;8636;55.750;13.202;2023-05-14T02:18:17;6.17;;;5.10;;
17038;SDS011;8636;55.750;13.202;2023-05-14T02:20:45;6.97;;;4.80;;
17038;SDS011;8636;55.750;13.202;2023-05-14T02:23:21;12.47;;;4.97;;
17038;SDS011;8636;55.750;13.202;2023-05-14T02:26:03;7.43;;;4.80;;
17038;SDS011;8636;55.750;13.202;2023-05-14T02:28:37;6.37;;;4.67;;
17038;SDS011;8636;55.750;13.202;2023-05-14T02:31:05;7.20;;;4.93;;
17038;SDS011;8636;55.750;13.202;2023-05-14T02:33:33;7.73;;;5.03;;
17038;SDS011;8636;55.750;13.202;2023-05-14T02:36:07;5.83;;;4.77;;
17038;SDS011;8636;55.750;13.202;2023-05-14T02:38:37;8.40;;;4.80;;
17038;SDS011;8636;55.750;13.202;2023-05-14T02:41:11;6.37;;;5.00;;
17038;SDS011;8636;55.750;13.202;2023-05-14T02:43:46;6.40;;;4.70;;
17038;SDS011;8636;55.750;13.202;2023-05-14T02:46:20;9.13;;;4.60;;
17038;SDS011;8636;55.750;13.202;2023-05-14T02:48:48;5.77;;;4.73;;
17038;SDS011;8636;55.750;13.202;2023-05-14T02:51:23;5.00;;;4.53;;
17038;SDS011;8636;55.750;13.202;2023-05-14T02:53:52;7.67;;;4.73;;
17038;SDS011;8636;55.750;13.202;2023-05-14T02:56:20;4.97;;;4.47;;
17038;SDS011;8636;55.750;13.202;2023-05-14T02:58:54;5.77;;;4.83;;
17038;SDS011;8636;55.750;13.202;2023-05-14T03:01:23;6.00;;;5.00;;
17038;SDS011;8636;55.750;13.202;2023-05-14T03:03:58;5.70;;;4.13;;
17038;SDS011;8636;55.750;13.202;2023-05-14T03:06:26;6.77;;;5.00;;
17038;SDS011;8636;55.750;13.202;2023-05-14T03:09:02;6.67;;;4.50;;
17038;SDS011;8636;55.750;13.202;2023-05-14T03:11:30;6.43;;;4.53;;
17038;SDS011;8636;55.750;13.202;2023-05-14T03:14:05;6.47;;;4.30;;
17038;SDS011;8636;55.750;13.202;2023-05-14T03:16:32;7.73;;;4.97;;
17038;SDS011;8636;55.750;13.202;2023-05-14T03:19:00;5.57;;;4.97;;
17038;SDS011;8636;55.750;13.202;2023-05-14T03:21:36;6.97;;;5.00;;
17038;SDS011;8636;55.750;13.202;2023-05-14T03:24:05;7.40;;;4.20;;
17038;SDS011;8636;55.750;13.202;2023-05-14T03:26:39;7.40;;;4.60;;
17038;SDS011;8636;55.750;13.202;2023-05-14T03:29:07;6.90;;;4.93;;
17038;SDS011;8636;55.750;13.202;2023-05-14T03:31:43;9.77;;;5.47;;
17038;SDS011;8636;55.750;13.202;2023-05-14T03:34:11;8.97;;;4.77;;
17038;SDS011;8636;55.750;13.202;2023-05-14T03:36:45;5.77;;;5.17;;
17038;SDS011;8636;55.750;13.202;2023-05-14T03:39:15;5.40;;;4.97;;
17038;SDS011;8636;55.750;13.202;2023-05-14T03:41:44;5.87;;;5.20;;
17038;SDS011;8636;55.750;13.202;2023-05-14T03:44:18;5.23;;;4.60;;
17038;SDS011;8636;55.750;13.202;2023-05-14T03:46:46;6.43;;;4.90;;
17038;SDS011;8636;55.750;13.202;2023-05-14T03:49:20;8.37;;;4.83;;
17038;SDS011;8636;55.750;13.202;2023-05-14T03:51:48;8.47;;;4.80;;
17038;SDS011;8636;55.750;13.202;2023-05-14T03:54:24;7.67;;;4.50;;
17038;SDS011;8636;55.750;13.202;2023-05-14T03:56:52;8.17;;;4.43;;
17038;SDS011;8636;55.750;13.202;2023-05-14T03:59:20;6.05;;;4.63;;
17038;SDS011;8636;55.750;13.202;2023-05-14T04:01:54;5.63;;;4.57;;
17038;SDS011;8636;55.750;13.202;2023-05-14T04:04:22;8.80;;;5.25;;
17038;SDS011;8636;55.750;13.202;2023-05-14T04:06:56;5.20;;;4.63;;
17038;SDS011;8636;55.750;13.202;2023-05-14T04:09:26;6.15;;;4.88;;
17038;SDS011;8636;55.750;13.202;2023-05-14T04:12:00;7.57;;;4.82;;
17038;SDS011;8636;55.750;13.202;2023-05-14T04:14:28;7.05;;;4.97;;
17038;SDS011;8636;55.750;13.202;2023-05-14T04:17:03;8.52;;;4.90;;
17038;SDS011;8636;55.750;13.202;2023-05-14T04:19:31;6.25;;;4.82;;
17038;SDS011;8636;55.750;13.202;2023-05-14T04:21:59;5.45;;;4.20;;
17038;SDS011;8636;55.750;13.202;2023-05-14T04:24:35;5.93;;;4.78;;
17038;SDS011;8636;55.750;13.202;2023-05-14T04:27:03;6.00;;;4.55;;
17038;SDS011;8636;55.750;13.202;2023-05-14T04:29:37;5.43;;;4.22;;
17038;SDS011;8636;55.750;13.202;2023-05-14T04:32:05;7.68;;;4.70;;
17038;SDS011;8636;55.750;13.202;2023-05-14T04:34:40;5.40;;;4.43;;
17038;SDS011;8636;55.750;13.202;2023-05-14T04:37:08;8.60;;;4.40;;
17038;SDS011;8636;55.750;13.202;2023-05-14T04:39:51;5.20;;;4.40;;
17038;SDS011;8636;55.750;13.202;2023-05-14T04:42:32;7.22;;;4.45;;
17038;SDS011;8636;55.750;13.202;2023-05-14T04:45:07;6.10;;;4.40;;
17038;SDS011;8636;55.750;13.202;2023-05-14T04:47:35;7.60;;;4.38;;
17038;SDS011;8636;55.750;13.202;2023-05-14T04:50:04;5.57;;;4.30;;
17038;SDS011;8636;55.750;13.202;2023-05-14T04:52:41;8.05;;;4.45;;
17038;SDS011;8636;55.750;13.202;2023-05-14T04:55:10;11.63;;;4.70;;
17038;SDS011;8636;55.750;13.202;2023-05-14T04:57:44;6.80;;;4.85;;
17038;SDS011;8636;55.750;13.202;2023-05-14T05:00:13;6.22;;;4.65;;
17038;SDS011;8636;55.750;13.202;2023-05-14T05:02:49;9.45;;;4.78;;
17038;SDS011;8636;55.750;13.202;2023-05-14T05:05:17;6.85;;;4.38;;
17038;SDS011;8636;55.750;13.202;2023-05-14T05:07:52;5.75;;;4.40;;
17038;SDS011;8636;55.750;13.202;2023-05-14T05:10:22;7.50;;;4.95;;
17038;SDS011;8636;55.750;13.202;2023-05-14T05:12:50;6.72;;;4.70;;
17038;SDS011;8636;55.750;13.202;2023-05-14T05:15:24;6.55;;;4.68;;
17038;SDS011;8636;55.750;13.202;2023-05-14T05:17:52;7.78;;;4.63;;
17038;SDS011;8636;55.750;13.202;2023-05-14T05:20:26;8.93;;;4.30;;
17038;SDS011;8636;55.750;13.202;2023-05-14T05:22:54;9.98;;;4.82;;
17038;SDS011;8636;55.750;13.202;2023-05-14T05:25:30;6.00;;;4.60;;
17038;SDS011;8636;55.750;13.202;2023-05-14T05:27:58;6.13;;;4.35;;
17038;SDS011;8636;55.750;13.202;2023-05-14T05:30:26;5.40;;;3.97;;
17038;SDS011;8636;55.750;13.202;2023-05-14T05:33:01;5.57;;;4.00;;
17038;SDS011;8636;55.750;13.202;2023-05-14T05:35:30;7.60;;;4.40;;
17038;SDS011;8636;55.750;13.202;2023-05-14T05:38:04;7.70;;;4.15;;
17038;SDS011;8636;55.750;13.202;2023-05-14T05:40:34;7.20;;;4.20;;
17038;SDS011;8636;55.750;13.202;2023-05-14T05:43:08;7.88;;;4.57;;
17038;SDS011;8636;55.750;13.202;2023-05-14T05:45:39;8.05;;;4.68;;
17038;SDS011;8636;55.750;13.202;2023-05-14T05:48:14;5.03;;;4.25;;
17038;SDS011;8636;55.750;13.202;2023-05-14T05:50:42;10.05;;;4.93;;
17038;SDS011;8636;55.750;13.202;2023-05-14T05:53:13;7.32;;;4.10;;
17038;SDS011;8636;55.750;13.202;2023-05-14T05:55:50;8.63;;;4.57;;
17038;SDS011;8636;55.750;13.202;2023-05-14T05:58:18;6.72;;;4.78;;
17038;SDS011;8636;55.750;13.202;2023-05-14T06:00:55;5.72;;;4.55;;
17038;SDS011;8636;55.750;13.202;2023-05-14T06:03:25;5.18;;;4.50;;
17038;SDS011;8636;55.750;13.202;2023-05-14T06:05:59;6.00;;;4.38;;
17038;SDS011;8636;55.750;13.202;2023-05-14T06:08:28;6.28;;;4.68;;
17038;SDS011;8636;55.750;13.202;2023-05-14T06:11:04;5.38;;;4.10;;
17038;SDS011;8636;55.750;13.202;2023-05-14T06:13:32;5.70;;;3.97;;
17038;SDS011;8636;55.750;13.202;2023-05-14T06:16:00;8.63;;;4.55;;
17038;SDS011;8636;55.750;13.202;2023-05-14T06:18:42;5.97;;;4.30;;
17038;SDS011;8636;55.750;13.202;2023-05-14T06:21:10;11.32;;;4.65;;
17038;SDS011;8636;55.750;13.202;2023-05-14T06:23:45;6.60;;;4.45;;
17038;SDS011;8636;55.750;13.202;2023-05-14T06:26:14;5.32;;;3.92;;
17038;SDS011;8636;55.750;13.202;2023-05-14T06:28:49;8.23;;;4.72;;
17038;SDS011;8636;55.750;13.202;2023-05-14T06:31:17;7.78;;;4.30;;
17038;SDS011;8636;55.750;13.202;2023-05-14T06:33:53;6.00;;;4.03;;
17038;SDS011;8636;55.750;13.202;2023-05-14T06:36:20;9.02;;;4.45;;
17038;SDS011;8636;55.750;13.202;2023-05-14T06:38:48;5.47;;;4.45;;
17038;SDS011;8636;55.750;13.202;2023-05-14T06:41:24;5.07;;;3.88;;
17038;SDS011;8636;55.750;13.202;2023-05-14T06:44:05;5.90;;;4.00;;
17038;SDS011;8636;55.750;13.202;2023-05-14T06:46:39;5.60;;;4.03;;
17038;SDS011;8636;55.750;13.202;2023-05-14T06:49:07;5.63;;;4.10;;
17038;SDS011;8636;55.750;13.202;2023-05-14T06:51:42;7.43;;;4.03;;
17038;SDS011;8636;55.750;13.202;2023-05-14T06:54:10;7.50;;;4.20;;
17038;SDS011;8636;55.750;13.202;2023-05-14T06:56:46;7.00;;;4.20;;
17038;SDS011;8636;55.750;13.202;2023-05-14T06:59:14;6.38;;;3.97;;
17038;SDS011;8636;55.750;13.202;2023-05-14T07:01:41;4.47;;;3.90;;
17038;SDS011;8636;55.750;13.202;2023-05-14T07:04:16;7.85;;;4.53;;
17038;SDS011;8636;55.750;13.202;2023-05-14T07:06:43;9.90;;;4.15;;
17038;SDS011;8636;55.750;13.202;2023-05-14T07:09:17;6.55;;;4.32;;
17038;SDS011;8636;55.750;13.202;2023-05-14T07:11:47;5.45;;;4.05;;
17038;SDS011;8636;55.750;13.202;2023-05-14T07:14:22;6.78;;;3.75;;
17038;SDS011;8636;55.750;13.202;2023-05-14T07:16:50;7.43;;;3.88;;
17038;SDS011;8636;55.750;13.202;2023-05-14T07:19:18;5.60;;;3.80;;
17038;SDS011;8636;55.750;13.202;2023-05-14T07:21:53;5.75;;;3.83;;
17038;SDS011;8636;55.750;13.202;2023-05-14T07:24:22;7.50;;;4.38;;
17038;SDS011;8636;55.750;13.202;2023-05-14T07:26:58;6.07;;;3.72;;
17038;SDS011;8636;55.750;13.202;2023-05-14T07:29:27;8.82;;;4.00;;
17038;SDS011;8636;55.750;13.202;2023-05-14T07:32:02;8.20;;;3.72;;
17038;SDS011;8636;55.750;13.202;2023-05-14T07:34:29;4.93;;;3.70;;
17038;SDS011;8636;55.750;13.202;2023-05-14T07:37:04;4.57;;;3.38;;
17038;SDS011;8636;55.750;13.202;2023-05-14T07:39:32;6.95;;;4.05;;
17038;SDS011;8636;55.750;13.202;2023-05-14T07:42:01;7.80;;;3.83;;
17038;SDS011;8636;55.750;13.202;2023-05-14T07:44:50;5.72;;;4.07;;
17038;SDS011;8636;55.750;13.202;2023-05-14T07:47:17;7.68;;;4.28;;
17038;SDS011;8636;55.750;13.202;2023-05-14T07:49:53;5.90;;;3.83;;
17038;SDS011;8636;55.750;13.202;2023-05-14T07:52:21;8.35;;;4.25;;
17038;SDS011;8636;55.750;13.202;2023-05-14T07:54:56;5.65;;;3.97;;
17038;SDS011;8636;55.750;13.202;2023-05-14T07:57:26;6.47;;;3.67;;
17038;SDS011;8636;55.750;13.202;2023-05-14T08:00:01;6.85;;;4.13;;
17038;SDS011;8636;55.750;13.202;2023-05-14T08:02:29;7.72;;;3.65;;
17038;SDS011;8636;55.750;13.202;2023-05-14T08:04:57;6.07;;;3.47;;
17038;SDS011;8636;55.750;13.202;2023-05-14T08:07:31;5.10;;;3.80;;
17038;SDS011;8636;55.750;13.202;2023-05-14T08:09:59;5.18;;;3.70;;
17038;SDS011;8636;55.750;13.202;2023-05-14T08:12:35;8.07;;;3.90;;
17038;SDS011;8636;55.750;13.202;2023-05-14T08:15:04;7.20;;;3.55;;
17038;SDS011;8636;55.750;13.202;2023-05-14T08:17:40;12.88;;;3.80;;
17038;SDS011;8636;55.750;13.202;2023-05-14T08:20:08;5.43;;;3.53;;
17038;SDS011;8636;55.750;13.202;2023-05-14T08:22:44;4.82;;;3.53;;
17038;SDS011;8636;55.750;13.202;2023-05-14T08:25:12;3.92;;;3.38;;
17038;SDS011;8636;55.750;13.202;2023-05-14T08:27:41;5.32;;;3.45;;
17038;SDS011;8636;55.750;13.202;2023-05-14T08:30:15;5.57;;;3.60;;
17038;SDS011;8636;55.750;13.202;2023-05-14T08:32:44;4.88;;;3.40;;
17038;SDS011;8636;55.750;13.202;2023-05-14T08:35:18;4.55;;;3.30;;
17038;SDS011;8636;55.750;13.202;2023-05-14T08:37:46;6.68;;;3.70;;
17038;SDS011;8636;55.750;13.202;2023-05-14T08:40:23;4.88;;;3.00;;
17038;SDS011;8636;55.750;13.202;2023-05-14T08:43:05;4.35;;;3.13;;
17038;SDS011;8636;55.750;13.202;2023-05-14T08:45:40;6.15;;;3.25;;
17038;SDS011;8636;55.750;13.202;2023-05-14T08:48:10;6.82;;;3.10;;
17038;SDS011;8636;55.750;13.202;2023-05-14T08:50:48;5.82;;;2.80;;
17038;SDS011;8636;55.750;13.202;2023-05-14T08:53:16;4.90;;;3.20;;
17038;SDS011;8636;55.750;13.202;2023-05-14T08:55:44;4.10;;;2.90;;
17038;SDS011;8636;55.750;13.202;2023-05-14T08:58:21;3.40;;;2.90;;
17038;SDS011;8636;55.750;13.202;2023-05-14T09:00:52;6.50;;;3.17;;
17038;SDS011;8636;55.750;13.202;2023-05-14T09:03:27;3.80;;;3.10;;
17038;SDS011;8636;55.750;13.202;2023-05-14T09:05:56;3.80;;;2.70;;
17038;SDS011;8636;55.750;13.202;2023-05-14T09:08:32;6.68;;;3.50;;
17038;SDS011;8636;55.750;13.202;2023-05-14T09:11:01;6.78;;;2.95;;
17038;SDS011;8636;55.750;13.202;2023-05-14T09:13:30;5.72;;;3.08;;
17038;SDS011;8636;55.750;13.202;2023-05-14T09:16:05;4.15;;;3.00;;
17038;SDS011;8636;55.750;13.202;2023-05-14T09:18:34;4.90;;;3.15;;
17038;SDS011;8636;55.750;13.202;2023-05-14T09:21:09;15.13;;;3.67;;
17038;SDS011;8636;55.750;13.202;2023-05-14T09:23:40;4.43;;;2.90;;
17038;SDS011;8636;55.750;13.202;2023-05-14T09:26:16;5.25;;;3.47;;
17038;SDS011;8636;55.750;13.202;2023-05-14T09:28:46;3.60;;;2.72;;
17038;SDS011;8636;55.750;13.202;2023-05-14T09:31:13;5.43;;;2.55;;
17038;SDS011;8636;55.750;13.202;2023-05-14T09:33:51;7.22;;;3.75;;
17038;SDS011;8636;55.750;13.202;2023-05-14T09:36:19;3.90;;;2.70;;
17038;SDS011;8636;55.750;13.202;2023-05-14T09:38:55;5.53;;;3.28;;
17038;SDS011;8636;55.750;13.202;2023-05-14T09:41:30;7.78;;;3.22;;
17038;SDS011;8636;55.750;13.202;2023-05-14T09:44:20;3.40;;;3.00;;
17038;SDS011;8636;55.750;13.202;2023-05-14T09:46:48;4.78;;;2.90;;
17038;SDS011;8636;55.750;13.202;2023-05-14T09:49:23;4.75;;;2.85;;
17038;SDS011;8636;55.750;13.202;2023-05-14T09:51:51;5.63;;;3.20;;
17038;SDS011;8636;55.750;13.202;2023-05-14T09:54:22;3.38;;;2.97;;
17038;SDS011;8636;55.750;13.202;2023-05-14T09:56:59;5.13;;;3.15;;
17038;SDS011;8636;55.750;13.202;2023-05-14T09:59:28;6.00;;;3.15;;
17038;SDS011;8636;55.750;13.202;2023-05-14T10:02:06;3.42;;;3.10;;
17038;SDS011;8636;55.750;13.202;2023-05-14T10:04:42;3.67;;;2.95;;
17038;SDS011;8636;55.750;13.202;2023-05-14T10:07:20;4.60;;;3.05;;
17038;SDS011;8636;55.750;13.202;2023-05-14T10:09:50;5.15;;;2.95;;
17038;SDS011;8636;55.750;13.202;2023-05-14T10:12:31;3.60;;;2.40;;
17038;SDS011;8636;55.750;13.202;2023-05-14T10:15:03;4.50;;;2.63;;
17038;SDS011;8636;55.750;13.202;2023-05-14T10:17:47;3.03;;;2.70;;
17038;SDS011;8636;55.750;13.202;2023-05-14T10:20:16;3.35;;;2.75;;
17038;SDS011;8636;55.750;13.202;2023-05-14T10:22:51;4.30;;;3.28;;
17038;SDS011;8636;55.750;13.202;2023-05-14T10:25:19;3.83;;;2.58;;
17038;SDS011;8636;55.750;13.202;2023-05-14T10:27:48;3.20;;;2.85;;
17038;SDS011;8636;55.750;13.202;2023-05-14T10:30:23;5.00;;;3.10;;
17038;SDS011;8636;55.750;13.202;2023-05-14T10:33:05;6.07;;;3.22;;
17038;SDS011;8636;55.750;13.202;2023-05-14T10:35:50;3.70;;;2.60;;
17038;SDS011;8636;55.750;13.202;2023-05-14T10:38:24;5.05;;;2.78;;
17038;SDS011;8636;55.750;13.202;2023-05-14T10:41:00;3.40;;;2.30;;
17038;SDS011;8636;55.750;13.202;2023-05-14T10:43:43;4.53;;;2.40;;
17038;SDS011;8636;55.750;13.202;2023-05-14T10:46:19;3.28;;;2.45;;
17038;SDS011;8636;55.750;13.202;2023-05-14T10:48:47;11.55;;;2.83;;
17038;SDS011;8636;55.750;13.202;2023-05-14T10:51:16;3.15;;;2.72;;
17038;SDS011;8636;55.750;13.202;2023-05-14T10:53:52;3.17;;;2.90;;
17038;SDS011;8636;55.750;13.202;2023-05-14T10:56:19;3.95;;;2.63;;
17038;SDS011;8636;55.750;13.202;2023-05-14T10:58:56;3.40;;;2.42;;
17038;SDS011;8636;55.750;13.202;2023-05-14T11:01:33;2.83;;;2.53;;
17038;SDS011;8636;55.750;13.202;2023-05-14T11:04:08;3.60;;;2.50;;
17038;SDS011;8636;55.750;13.202;2023-05-14T11:06:36;3.90;;;2.65;;
17038;SDS011;8636;55.750;13.202;2023-05-14T11:09:12;2.90;;;2.60;;
17038;SDS011;8636;55.750;13.202;2023-05-14T11:11:43;4.10;;;2.58;;
17038;SDS011;8636;55.750;13.202;2023-05-14T11:14:19;4.45;;;2.90;;
17038;SDS011;8636;55.750;13.202;2023-05-14T11:16:48;2.53;;;2.33;;
17038;SDS011;8636;55.750;13.202;2023-05-14T11:19:17;4.65;;;2.90;;
17038;SDS011;8636;55.750;13.202;2023-05-14T11:21:55;3.85;;;2.45;;
17038;SDS011;8636;55.750;13.202;2023-05-14T11:24:23;3.58;;;2.38;;
17038;SDS011;8636;55.750;13.202;2023-05-14T11:26:58;4.63;;;2.67;;
17038;SDS011;8636;55.750;13.202;2023-05-14T11:29:25;2.50;;;2.30;;
17038;SDS011;8636;55.750;13.202;2023-05-14T11:32:01;2.92;;;2.63;;
17038;SDS011;8636;55.750;13.202;2023-05-14T11:34:31;2.47;;;2.20;;
17038;SDS011;8636;55.750;13.202;2023-05-14T11:37:06;4.75;;;2.70;;
17038;SDS011;8636;55.750;13.202;2023-05-14T11:39:35;5.32;;;2.85;;
17038;SDS011;8636;55.750;13.202;2023-05-14T11:42:04;5.00;;;2.65;;
17038;SDS011;8636;55.750;13.202;2023-05-14T11:44:43;5.15;;;2.85;;
17038;SDS011;8636;55.750;13.202;2023-05-14T11:47:13;3.67;;;2.78;;
17038;SDS011;8636;55.750;13.202;2023-05-14T11:49:49;4.57;;;2.63;;
17038;SDS011;8636;55.750;13.202;2023-05-14T11:52:17;4.95;;;2.47;;
17038;SDS011;8636;55.750;13.202;2023-05-14T11:54:53;3.15;;;2.38;;
17038;SDS011;8636;55.750;13.202;2023-05-14T11:57:21;2.65;;;2.33;;
17038;SDS011;8636;55.750;13.202;2023-05-14T11:59:56;3.00;;;2.67;;
17038;SDS011;8636;55.750;13.202;2023-05-14T12:02:25;4.57;;;2.63;;
17038;SDS011;8636;55.750;13.202;2023-05-14T12:04:54;2.67;;;2.40;;
17038;SDS011;8636;55.750;13.202;2023-05-14T12:07:29;4.78;;;2.67;;
17038;SDS011;8636;55.750;13.202;2023-05-14T12:09:59;5.28;;;2.80;;
17038;SDS011;8636;55.750;13.202;2023-05-14T12:12:35;6.32;;;2.63;;
17038;SDS011;8636;55.750;13.202;2023-05-14T12:15:09;4.55;;;2.85;;
17038;SDS011;8636;55.750;13.202;2023-05-14T12:17:49;2.75;;;2.55;;
17038;SDS011;8636;55.750;13.202;2023-05-14T12:20:17;7.50;;;3.03;;
17038;SDS011;8636;55.750;13.202;2023-05-14T12:22:52;3.88;;;2.53;;
17038;SDS011;8636;55.750;13.202;2023-05-14T12:25:20;3.05;;;2.60;;
17038;SDS011;8636;55.750;13.202;2023-05-14T12:27:48;3.65;;;2.75;;
17038;SDS011;8636;55.750;13.202;2023-05-14T12:30:23;7.28;;;4.18;;
17038;SDS011;8636;55.750;13.202;2023-05-14T12:32:52;3.03;;;2.72;;
17038;SDS011;8636;55.750;13.202;2023-05-14T12:35:27;3.42;;;2.60;;
17038;SDS011;8636;55.750;13.202;2023-05-14T12:37:54;3.53;;;2.80;;
17038;SDS011;8636;55.750;13.202;2023-05-14T12:40:35;3.63;;;2.60;;
17038;SDS011;8636;55.750;13.202;2023-05-14T12:43:17;3.83;;;2.63;;
17038;SDS011;8636;55.750;13.202;2023-05-14T12:45:53;4.15;;;2.75;;
17038;SDS011;8636;55.750;13.202;2023-05-14T12:48:22;3.40;;;2.78;;
17038;SDS011;8636;55.750;13.202;2023-05-14T12:50:50;4.38;;;2.95;;
17038;SDS011;8636;55.750;13.202;2023-05-14T12:53:25;3.40;;;2.42;;
17038;SDS011;8636;55.750;13.202;2023-05-14T12:55:53;5.60;;;3.00;;
17038;SDS011;8636;55.750;13.202;2023-05-14T12:58:28;4.22;;;2.83;;
17038;SDS011;8636;55.750;13.202;2023-05-14T13:00:55;4.05;;;2.70;;
17038;SDS011;8636;55.750;13.202;2023-05-14T13:03:31;2.95;;;2.72;;
17038;SDS011;8636;55.750;13.202;2023-05-14T13:05:59;2.53;;;2.33;;
17038;SDS011;8636;55.750;13.202;2023-05-14T13:08:27;3.50;;;2.97;;
17038;SDS011;8636;55.750;13.202;2023-05-14T13:11:02;3.58;;;2.58;;
17038;SDS011;8636;55.750;13.202;2023-05-14T13:13:29;4.85;;;2.60;;
17038;SDS011;8636;55.750;13.202;2023-05-14T13:16:04;6.75;;;2.95;;
17038;SDS011;8636;55.750;13.202;2023-05-14T13:18:33;3.17;;;2.53;;
17038;SDS011;8636;55.750;13.202;2023-05-14T13:21:08;2.88;;;2.50;;
17038;SDS011;8636;55.750;13.202;2023-05-14T13:23:36;2.63;;;2.42;;
17038;SDS011;8636;55.750;13.202;2023-05-14T13:26:04;3.30;;;3.00;;
17038;SDS011;8636;55.750;13.202;2023-05-14T13:28:38;3.78;;;2.58;;
17038;SDS011;8636;55.750;13.202;2023-05-14T13:31:06;3.85;;;2.42;;
17038;SDS011;8636;55.750;13.202;2023-05-14T13:33:43;2.80;;;2.53;;
17038;SDS011;8636;55.750;13.202;2023-05-14T13:36:12;3.90;;;2.30;;
17038;SDS011;8636;55.750;13.202;2023-05-14T13:38:48;3.15;;;2.70;;
17038;SDS011;8636;55.750;13.202;2023-05-14T13:41:22;2.72;;;2.40;;
17038;SDS011;8636;55.750;13.202;2023-05-14T13:43:58;3.50;;;2.50;;
17038;SDS011;8636;55.750;13.202;2023-05-14T13:46:32;3.28;;;2.42;;
17038;SDS011;8636;55.750;13.202;2023-05-14T13:49:08;4.53;;;2.70;;
17038;SDS011;8636;55.750;13.202;2023-05-14T13:51:36;6.05;;;2.75;;
17038;SDS011;8636;55.750;13.202;2023-05-14T13:54:04;2.90;;;2.40;;
17038;SDS011;8636;55.750;13.202;2023-05-14T13:56:40;4.68;;;2.88;;
17038;SDS011;8636;55.750;13.202;2023-05-14T13:59:07;4.70;;;2.30;;
17038;SDS011;8636;55.750;13.202;2023-05-14T14:01:43;3.63;;;2.58;;
17038;SDS011;8636;55.750;13.202;2023-05-14T14:04:12;2.80;;;2.60;;
17038;SDS011;8636;55.750;13.202;2023-05-14T14:06:48;2.47;;;2.13;;
17038;SDS011;8636;55.750;13.202;2023-05-14T14:09:15;5.45;;;2.78;;
17038;SDS011;8636;55.750;13.202;2023-05-14T14:11:50;5.22;;;2.67;;
17038;SDS011;8636;55.750;13.202;2023-05-14T14:14:18;2.88;;;2.53;;
17038;SDS011;8636;55.750;13.202;2023-05-14T14:16:46;4.05;;;2.65;;
17038;SDS011;8636;55.750;13.202;2023-05-14T14:19:22;4.30;;;2.60;;
17038;SDS011;8636;55.750;13.202;2023-05-14T14:21:50;4.65;;;2.70;;
17038;SDS011;8636;55.750;13.202;2023-05-14T14:24:24;4.35;;;2.50;;
17038;SDS011;8636;55.750;13.202;2023-05-14T14:26:51;4.63;;;2.65;;
17038;SDS011;8636;55.750;13.202;2023-05-14T14:29:26;3.90;;;2.90;;
17038;SDS011;8636;55.750;13.202;2023-05-14T14:31:56;4.45;;;2.90;;
17038;SDS011;8636;55.750;13.202;2023-05-14T14:34:25;3.75;;;2.75;;
17038;SDS011;8636;55.750;13.202;2023-05-14T14:37:00;6.35;;;2.75;;
17038;SDS011;8636;55.750;13.202;2023-05-14T14:39:35;3.60;;;2.42;;
17038;SDS011;8636;55.750;13.202;2023-05-14T14:42:09;4.15;;;2.55;;
17038;SDS011;8636;55.750;13.202;2023-05-14T14:44:51;3.75;;;2.65;;
17038;SDS011;8636;55.750;13.202;2023-05-14T14:47:19;2.53;;;2.17;;
17038;SDS011;8636;55.750;13.202;2023-05-14T14:49:49;4.32;;;2.90;;
17038;SDS011;8636;55.750;13.202;2023-05-14T14:52:24;3.85;;;2.65;;
17038;SDS011;8636;55.750;13.202;2023-05-14T14:54:52;3.45;;;2.88;;
17038;SDS011;8636;55.750;13.202;2023-05-14T14:57:28;4.07;;;2.60;;
17038;SDS011;8636;55.750;13.202;2023-05-14T14:59:56;3.75;;;2.80;;
17038;SDS011;8636;55.750;13.202;2023-05-14T15:02:30;4.00;;;2.38;;
17038;SDS011;8636;55.750;13.202;2023-05-14T15:04:59;3.35;;;2.38;;
17038;SDS011;8636;55.750;13.202;2023-05-14T15:07:27;4.72;;;2.35;;
17038;SDS011;8636;55.750;13.202;2023-05-14T15:10:04;3.72;;;2.78;;
17038;SDS011;8636;55.750;13.202;2023-05-14T15:12:33;3.20;;;2.90;;
17038;SDS011;8636;55.750;13.202;2023-05-14T15:15:07;4.85;;;2.55;;
17038;SDS011;8636;55.750;13.202;2023-05-14T15:17:36;4.03;;;2.50;;